Sicklerville, New Jersey
Current Conditions -  °F | °C
As of 2:54 PM on Saturday 25 Oct 2014 (Local Time) from KVAY Reporting Station
Few Clouds Few Clouds  
Wind Chill: 68°   Ceiling: Unl
Heat Index: 68°   Visibility: 10mi
Dew Point: 43°   Wind: 13mph
Humidity: 40%   Direction: 250°WSW
Pressure: 29.75"   Gusts: NA
Location:  39.72°N, 74.97°W
Report Text: KVAY 251854Z AUTO 25011KT 10SM FEW055 20/06 A2975 RMK AO2 SLP073 T02000061
Loading
Personal Weather Stations






























Interactive Weather Map
Tropical Storm Tracking
New forecast layout! Learn more

10-Day Weather Forecast

Advertisements
Track Severe Weather on mobile